createdAt,value
2024-04-15T00:00:22.043Z,10.31
2024-04-15T00:02:54.523Z,10.25
2024-04-15T00:05:29.524Z,10.19
2024-04-15T00:08:04.598Z,10.15
2024-04-15T00:10:40.375Z,10.13
2024-04-15T00:13:15.589Z,10.12
2024-04-15T00:15:55.580Z,10.13
2024-04-15T00:18:31.408Z,10.12
2024-04-15T00:21:09.970Z,10.09
2024-04-15T00:23:45.312Z,10.09
2024-04-15T00:26:20.281Z,10.05
2024-04-15T00:28:55.196Z,10.02
2024-04-15T00:31:27.555Z,9.96
2024-04-15T00:34:02.472Z,9.90
2024-04-15T00:36:34.925Z,9.86
2024-04-15T00:39:09.899Z,9.87
2024-04-15T00:41:44.944Z,9.86
2024-04-15T00:44:19.904Z,9.82
2024-04-15T00:46:52.320Z,9.80
2024-04-15T00:49:27.334Z,9.79
2024-04-15T00:52:01.193Z,9.77
2024-04-15T00:54:37.095Z,9.77
2024-04-15T00:57:12.690Z,9.73
2024-04-15T00:59:48.091Z,9.71
2024-04-15T01:02:21.205Z,9.68
2024-04-15T01:04:56.828Z,9.62
2024-04-15T01:07:29.241Z,9.60
2024-04-15T01:10:04.253Z,9.56
2024-04-15T01:12:42.383Z,9.53
2024-04-15T01:15:17.337Z,9.50
2024-04-15T01:17:49.797Z,9.48
2024-04-15T01:20:24.840Z,9.45
2024-04-15T01:23:07.814Z,9.44
2024-04-15T01:25:42.852Z,9.39
2024-04-15T01:28:20.533Z,9.38
2024-04-15T01:30:52.989Z,9.37
2024-04-15T01:33:28.064Z,9.36
2024-04-15T01:36:00.408Z,9.35
2024-04-15T01:38:35.391Z,9.36
2024-04-15T01:41:10.373Z,9.34
2024-04-15T01:43:45.299Z,9.32
2024-04-15T01:46:17.658Z,9.33
2024-04-15T01:48:52.619Z,9.33
2024-04-15T01:51:24.977Z,9.34
2024-04-15T01:54:00.101Z,9.33
2024-04-15T01:56:35.072Z,9.32
2024-04-15T01:59:10.962Z,9.32
2024-04-15T02:01:43.292Z,9.32
2024-04-15T02:04:18.424Z,9.33
2024-04-15T02:06:50.864Z,9.34
2024-04-15T02:09:25.892Z,9.35
2024-04-15T02:12:02.431Z,9.34
2024-04-15T02:14:37.366Z,9.35
2024-04-15T02:17:09.739Z,9.36
2024-04-15T02:19:44.633Z,9.37
2024-04-15T02:22:16.979Z,9.38
2024-04-15T02:24:51.931Z,9.39
2024-04-15T02:27:26.948Z,9.36
2024-04-15T02:30:01.924Z,9.35
2024-04-15T02:32:34.282Z,9.30
2024-04-15T02:35:10.174Z,9.24
2024-04-15T02:37:42.609Z,9.18
2024-04-15T02:40:17.709Z,9.13
2024-04-15T02:42:52.747Z,9.09
2024-04-15T02:45:27.776Z,9.08
2024-04-15T02:48:00.286Z,9.07
2024-04-15T02:50:35.320Z,9.06
2024-04-15T02:53:10.226Z,9.07
2024-04-15T02:55:43.518Z,9.09
2024-04-15T02:58:21.086Z,9.09
2024-04-15T03:00:53.519Z,9.10
2024-04-15T03:03:28.492Z,9.11
2024-04-15T03:06:01.150Z,9.13
2024-04-15T03:08:36.075Z,9.12
2024-04-15T03:11:12.081Z,9.13
2024-04-15T03:13:50.986Z,9.13
2024-04-15T03:16:27.546Z,9.15
2024-04-15T03:19:03.259Z,9.17
2024-04-15T03:21:35.659Z,9.19
2024-04-15T03:24:11.108Z,9.20
2024-04-15T03:26:44.700Z,9.23
2024-04-15T03:29:22.310Z,9.27
2024-04-15T03:31:55.097Z,9.29
2024-04-15T03:34:30.056Z,9.31
2024-04-15T03:37:05.144Z,9.32
2024-04-15T03:39:37.516Z,9.34
2024-04-15T03:42:12.431Z,9.36
2024-04-15T03:44:47.436Z,9.38
2024-04-15T03:47:22.480Z,9.41
2024-04-15T03:49:54.892Z,9.44
2024-04-15T03:52:30.836Z,9.45
2024-04-15T03:55:04.760Z,9.47
2024-04-15T03:57:39.689Z,9.47
2024-04-15T04:00:15.140Z,9.42
2024-04-15T04:02:52.901Z,9.39
2024-04-15T04:05:25.983Z,9.39
2024-04-15T04:08:01.066Z,9.38
2024-04-15T04:10:36.062Z,9.37
2024-04-15T04:13:08.557Z,9.39
2024-04-15T04:15:46.316Z,9.40
2024-04-15T04:18:18.685Z,9.41
2024-04-15T04:20:53.639Z,9.40
2024-04-15T04:23:25.967Z,9.39
2024-04-15T04:26:00.903Z,9.38
2024-04-15T04:28:33.236Z,9.38
2024-04-15T04:31:10.815Z,9.36
2024-04-15T04:33:43.288Z,9.35
2024-04-15T04:36:21.151Z,9.38
2024-04-15T04:38:54.680Z,9.42
2024-04-15T04:41:29.644Z,9.44
2024-04-15T04:44:02.015Z,9.47
2024-04-15T04:46:39.676Z,9.49
2024-04-15T04:49:12.295Z,9.55
2024-04-15T04:51:47.316Z,9.59
2024-04-15T04:54:19.760Z,9.63
2024-04-15T04:56:54.741Z,9.68
2024-04-15T04:59:27.800Z,9.73
2024-04-15T05:02:07.556Z,9.76
2024-04-15T05:04:40.369Z,9.78
2024-04-15T05:07:15.373Z,9.80
2024-04-15T05:09:47.782Z,9.82
2024-04-15T05:12:22.938Z,9.85
2024-04-15T05:14:55.484Z,9.88
2024-04-15T05:17:33.137Z,9.92
2024-04-15T05:20:09.298Z,9.97
2024-04-15T05:22:44.424Z,10.02
2024-04-15T05:25:17.094Z,10.05
2024-04-15T05:27:52.278Z,10.10
2024-04-15T05:30:24.714Z,10.08
2024-04-15T05:33:02.358Z,10.05
2024-04-15T05:35:34.851Z,10.04
2024-04-15T05:38:09.953Z,10.03
2024-04-15T05:40:42.570Z,10.04
2024-04-15T05:43:18.908Z,10.05
2024-04-15T05:45:51.386Z,10.02
2024-04-15T05:48:29.108Z,10.03
2024-04-15T05:51:01.749Z,10.03
2024-04-15T05:53:36.830Z,10.04
2024-04-15T05:56:09.294Z,10.08
2024-04-15T05:58:44.202Z,10.08
2024-04-15T06:01:16.662Z,10.12
2024-04-15T06:03:54.340Z,10.16
2024-04-15T06:06:27.075Z,10.22
2024-04-15T06:09:02.359Z,10.27
2024-04-15T06:11:34.821Z,10.32
2024-04-15T06:14:09.961Z,10.34
2024-04-15T06:16:42.528Z,10.33
2024-04-15T06:19:20.694Z,10.34
2024-04-15T06:21:53.290Z,10.35
2024-04-15T06:24:28.418Z,10.34
2024-04-15T06:27:00.806Z,10.31
2024-04-15T06:29:37.633Z,10.24
2024-04-15T06:32:10.138Z,10.20
2024-04-15T06:34:47.657Z,10.18
2024-04-15T06:37:20.151Z,10.20
2024-04-15T06:39:55.330Z,10.21
2024-04-15T06:42:28.232Z,10.17
2024-04-15T06:45:03.126Z,10.15
2024-04-15T06:47:35.531Z,10.15
2024-04-15T06:50:15.081Z,10.15
2024-04-15T06:52:47.462Z,10.17
2024-04-15T06:55:22.503Z,10.20
2024-04-15T06:57:55.077Z,10.25
2024-04-15T07:00:30.172Z,10.25
2024-04-15T07:03:02.613Z,10.25
2024-04-15T07:05:40.312Z,10.23
2024-04-15T07:08:12.766Z,10.21
2024-04-15T07:10:47.681Z,10.17
2024-04-15T07:13:20.327Z,10.15
2024-04-15T07:15:55.335Z,10.15
2024-04-15T07:18:28.158Z,10.17
2024-04-15T07:21:05.740Z,10.18
2024-04-15T07:23:38.150Z,10.16
2024-04-15T07:26:13.139Z,10.14
2024-04-15T07:28:46.246Z,10.10
2024-04-15T07:31:21.379Z,10.06
2024-04-15T07:33:56.394Z,10.12
2024-04-15T07:36:34.442Z,10.81
2024-04-15T07:39:07.050Z,11.05
2024-04-15T07:41:42.226Z,11.12
2024-04-15T07:44:14.704Z,11.14
2024-04-15T07:46:49.858Z,11.12
2024-04-15T07:49:22.456Z,11.05
2024-04-15T07:52:00.317Z,10.99
2024-04-15T07:54:33.432Z,10.89
2024-04-15T07:57:09.729Z,10.79
2024-04-15T07:59:42.159Z,10.71
2024-04-15T08:02:17.277Z,10.59
2024-04-15T08:04:50.050Z,10.42
2024-04-15T08:07:28.446Z,10.18
2024-04-15T08:10:00.985Z,9.89
2024-04-15T08:12:36.087Z,9.63
2024-04-15T08:15:09.129Z,9.46
2024-04-15T08:17:44.373Z,9.40
2024-04-15T08:20:16.908Z,9.43
2024-04-15T08:22:54.428Z,9.49
2024-04-15T08:25:27.958Z,9.50
2024-04-15T08:28:03.019Z,9.44
2024-04-15T08:30:37.335Z,9.41
2024-04-15T08:33:12.513Z,9.37
2024-04-15T08:35:45.000Z,9.36
2024-04-15T08:38:22.778Z,9.36
2024-04-15T08:40:56.540Z,9.40
2024-04-15T08:43:32.449Z,9.38
2024-04-15T08:46:06.328Z,9.42
2024-04-15T08:48:43.261Z,9.48
2024-04-15T10:08:08.562Z,15.18
2024-04-15T10:10:42.933Z,16.26
2024-04-15T10:13:18.522Z,17.42
2024-04-15T10:16:00.286Z,18.59
2024-04-15T10:18:35.367Z,19.11
2024-04-15T10:21:09.156Z,19.22
2024-04-15T10:23:47.957Z,19.03
2024-04-15T10:27:39.886Z,18.75
2024-04-15T10:30:13.442Z,18.39
2024-04-15T10:32:48.944Z,18.08
2024-04-15T10:35:24.944Z,17.82
2024-04-15T10:38:03.093Z,17.42
2024-04-15T10:40:38.735Z,17.36
2024-04-15T10:43:18.805Z,17.58
2024-04-15T10:45:51.821Z,17.82
2024-04-15T10:48:26.863Z,17.95
2024-04-15T10:50:59.391Z,18.09
2024-04-15T10:53:34.469Z,18.29
2024-04-15T10:57:31.218Z,18.81
2024-04-15T11:00:05.106Z,19.03
2024-04-15T11:02:43.467Z,19.02
2024-04-15T11:05:17.448Z,18.76
2024-04-15T11:07:54.996Z,18.56
2024-04-15T11:10:27.685Z,18.30
2024-04-15T11:13:06.410Z,18.18
2024-04-15T11:15:40.701Z,18.12
2024-04-15T11:18:18.780Z,17.90
2024-04-15T11:20:59.811Z,17.86
2024-04-15T11:23:39.662Z,18.17
2024-04-15T11:26:14.588Z,18.39
2024-04-15T11:28:52.377Z,17.91
2024-04-15T11:31:25.223Z,17.10
2024-04-15T11:34:00.616Z,16.55
2024-04-15T11:36:33.371Z,16.32
2024-04-15T11:39:08.662Z,16.26
2024-04-15T11:41:41.168Z,16.21
2024-04-15T11:44:19.082Z,16.09
2024-04-15T11:46:55.365Z,16.02
2024-04-15T11:49:30.613Z,16.02
2024-04-15T11:52:03.312Z,16.07
2024-04-15T11:54:40.666Z,16.26
2024-04-15T11:57:13.222Z,16.15
2024-04-15T11:59:50.857Z,15.83
2024-04-15T12:05:00.043Z,15.14
2024-04-15T12:07:33.520Z,15.08
2024-04-15T12:10:10.417Z,15.13
2024-04-15T12:12:43.311Z,15.13
2024-04-15T12:15:18.560Z,15.25
2024-04-15T12:17:51.100Z,15.36
2024-04-15T12:20:29.197Z,15.49
2024-04-15T12:23:02.722Z,15.55
2024-04-15T12:25:37.566Z,15.83
2024-04-15T12:28:10.129Z,15.88
2024-04-15T12:30:45.264Z,15.84
2024-04-15T12:33:17.785Z,15.66
2024-04-15T12:35:55.778Z,15.50
2024-04-15T12:38:28.423Z,15.46
2024-04-15T12:41:03.609Z,15.43
2024-04-15T12:43:36.114Z,15.37
2024-04-15T12:46:11.832Z,15.35
2024-04-15T12:48:44.795Z,15.28
2024-04-15T12:51:22.635Z,15.18
2024-04-15T12:53:55.445Z,15.18
2024-04-15T12:56:30.503Z,15.17
2024-04-15T12:59:03.506Z,15.17
2024-04-15T13:01:50.394Z,15.17
2024-04-15T13:04:31.078Z,15.20
2024-04-15T13:07:09.116Z,15.17
2024-04-15T13:09:41.768Z,15.13
2024-04-15T13:12:17.571Z,15.03
2024-04-15T13:14:50.198Z,14.87
2024-04-15T13:17:25.420Z,14.80
2024-04-15T13:19:58.031Z,14.82
2024-04-15T13:22:35.776Z,14.84
2024-04-15T13:25:09.204Z,14.90
2024-04-15T13:27:44.294Z,14.95
2024-04-15T13:30:16.834Z,14.91
2024-04-15T13:32:52.186Z,14.86
2024-04-15T13:35:25.462Z,14.85
2024-04-15T13:38:03.560Z,14.79
2024-04-15T13:40:36.526Z,14.75
2024-04-15T13:43:11.658Z,14.69
2024-04-15T13:45:44.244Z,14.69
2024-04-15T13:48:19.464Z,14.80
2024-04-15T13:50:51.993Z,14.92
2024-04-15T13:53:29.649Z,14.98
2024-04-15T13:56:02.183Z,14.97
2024-04-15T13:58:37.463Z,14.97
2024-04-15T14:01:11.111Z,14.94
2024-04-15T14:03:46.072Z,14.95
2024-04-15T14:06:18.615Z,14.83
2024-04-15T14:08:56.318Z,14.84
2024-04-15T14:11:28.792Z,14.86
2024-04-15T14:14:04.522Z,14.85
2024-04-15T14:16:37.222Z,14.87
2024-04-15T14:19:12.744Z,14.86
2024-04-15T14:21:45.965Z,14.83
2024-04-15T14:24:23.787Z,14.76
2024-04-15T14:26:58.766Z,14.75
2024-04-15T14:29:33.945Z,14.76
2024-04-15T14:32:07.151Z,14.75
2024-04-15T14:34:45.624Z,14.69
2024-04-15T14:37:18.910Z,14.62
2024-04-15T14:40:07.569Z,14.53
2024-04-15T14:42:45.453Z,14.48
2024-04-15T14:45:20.535Z,14.49
2024-04-15T14:47:53.058Z,14.46
2024-04-15T14:50:28.249Z,14.43
2024-04-15T14:53:00.934Z,14.37
2024-04-15T14:55:40.311Z,14.37
2024-04-15T14:58:12.861Z,14.37
2024-04-15T15:00:49.020Z,14.37
2024-04-15T15:03:21.555Z,14.29
2024-04-15T15:05:58.391Z,14.22
2024-04-15T15:08:30.958Z,14.17
2024-04-15T15:11:11.990Z,14.15
2024-04-15T15:13:47.598Z,14.11
2024-04-15T15:16:20.410Z,14.08
2024-04-15T15:18:55.780Z,14.07
2024-04-15T15:21:29.447Z,13.99
2024-04-15T15:24:04.731Z,13.86
2024-04-15T15:26:40.639Z,13.71
2024-04-15T15:29:17.792Z,13.62
2024-04-15T15:31:50.392Z,13.55
2024-04-15T15:34:25.596Z,13.56
2024-04-15T15:36:58.424Z,13.57
2024-04-15T15:39:33.416Z,13.58
2024-04-15T15:42:10.313Z,13.60
2024-04-15T15:44:45.311Z,13.57
2024-04-15T15:47:18.007Z,13.56
2024-04-15T15:49:53.054Z,13.56
2024-04-15T15:52:25.752Z,13.53
2024-04-15T15:55:00.997Z,13.51
2024-04-15T15:57:36.166Z,13.51
2024-04-15T16:00:12.314Z,13.52
2024-04-15T16:02:50.631Z,13.58
2024-04-15T16:05:28.657Z,13.61
2024-04-15T16:08:04.493Z,13.61
2024-04-15T16:10:40.240Z,13.61
2024-04-15T16:13:15.552Z,13.60
2024-04-15T16:15:53.350Z,13.59
2024-04-15T16:18:30.379Z,13.57
2024-04-15T16:21:06.270Z,13.57
2024-04-15T16:23:39.054Z,13.54
2024-04-15T16:26:15.634Z,13.51
2024-04-15T16:28:50.668Z,13.48
2024-04-15T16:31:25.738Z,13.47
2024-04-15T16:33:58.698Z,13.42
2024-04-15T16:36:36.262Z,13.41
2024-04-15T16:39:09.283Z,13.39
2024-04-15T16:41:47.896Z,13.33
2024-04-15T16:44:22.884Z,13.29
2024-04-15T16:46:58.015Z,13.29
2024-04-15T16:49:35.496Z,13.31
2024-04-15T16:52:10.765Z,13.31
2024-04-15T16:54:44.953Z,13.28
2024-04-15T16:57:20.506Z,13.24
2024-04-15T17:00:04.541Z,13.22
2024-04-15T17:02:39.868Z,13.19
2024-04-15T17:05:12.921Z,13.19
2024-04-15T17:07:48.078Z,13.19
2024-04-15T17:10:21.266Z,13.16
2024-04-15T17:12:56.410Z,13.10
2024-04-15T17:15:31.571Z,13.03
2024-04-15T17:18:07.148Z,12.98
2024-04-15T17:20:39.807Z,12.95
2024-04-15T17:23:14.940Z,12.89
2024-04-15T17:25:47.524Z,12.81
2024-04-15T17:28:22.753Z,12.77
2024-04-15T17:30:57.839Z,12.70
2024-04-15T17:33:33.093Z,12.66
2024-04-15T17:36:06.497Z,12.63
2024-04-15T17:38:42.411Z,12.60
2024-04-15T17:41:15.355Z,12.56
2024-04-15T17:43:50.410Z,12.52
2024-04-15T17:46:25.550Z,12.50
2024-04-15T17:49:01.114Z,12.47
2024-04-15T17:51:35.554Z,12.43
2024-04-15T17:54:14.023Z,12.42
2024-04-15T17:56:46.592Z,12.39
2024-04-15T17:59:21.743Z,12.37
2024-04-15T18:01:56.778Z,12.35
2024-04-15T18:04:31.930Z,12.32
2024-04-15T18:07:04.786Z,12.29
2024-04-15T18:09:39.937Z,12.27
2024-04-15T18:12:13.049Z,12.24
2024-04-15T18:14:48.246Z,12.21
2024-04-15T18:17:23.667Z,12.15
2024-04-15T18:19:58.756Z,12.10
2024-04-15T18:22:31.117Z,12.04
2024-04-15T18:25:09.379Z,11.99
2024-04-15T18:27:41.863Z,11.95
2024-04-15T18:30:17.018Z,11.92
2024-04-15T18:32:52.100Z,11.88
2024-04-15T18:35:27.261Z,11.86
2024-04-15T18:38:00.391Z,11.82
2024-04-15T18:40:35.513Z,11.80
2024-04-15T18:43:09.019Z,11.80
2024-04-15T18:45:44.141Z,11.79
2024-04-15T18:48:19.256Z,11.76
2024-04-15T18:50:54.247Z,11.74
2024-04-15T18:53:26.677Z,11.72
2024-04-15T18:56:01.789Z,11.70
2024-04-15T18:58:34.475Z,11.68
2024-04-15T19:01:09.802Z,11.66
2024-04-15T19:03:45.009Z,11.63
2024-04-15T19:06:20.535Z,11.59
2024-04-15T19:08:53.927Z,11.55
2024-04-15T19:11:28.980Z,11.50
2024-04-15T19:14:01.885Z,11.45
2024-04-15T19:16:37.121Z,11.42
2024-04-15T19:19:13.511Z,11.42
2024-04-15T19:21:49.491Z,11.42
2024-04-15T19:24:22.104Z,11.38
2024-04-15T19:26:57.926Z,11.36
2024-04-15T19:29:30.838Z,11.35
2024-04-15T19:32:05.902Z,11.30
2024-04-15T19:34:40.938Z,11.29
2024-04-15T19:37:16.201Z,11.27
2024-04-15T19:39:48.617Z,11.22
2024-04-15T19:42:23.516Z,11.16
2024-04-15T19:44:55.901Z,11.12
2024-04-15T19:47:30.908Z,11.02
2024-04-15T19:50:06.810Z,10.94
2024-04-15T19:52:41.911Z,10.82
2024-04-15T19:55:16.538Z,10.75
2024-04-15T19:57:52.616Z,10.67
2024-04-15T20:00:25.001Z,10.57
2024-04-15T20:03:00.339Z,10.50
2024-04-15T20:05:37.563Z,10.45
2024-04-15T20:08:21.245Z,10.42
2024-04-15T20:10:54.777Z,10.38
2024-04-15T20:13:31.277Z,10.33
2024-04-15T20:16:04.546Z,10.28
2024-04-15T20:18:44.128Z,10.26
2024-04-15T20:21:19.624Z,10.22
2024-04-15T20:23:55.028Z,10.20
2024-04-15T20:26:27.876Z,10.16
2024-04-15T20:29:03.284Z,10.13
2024-04-15T20:31:36.175Z,10.11
2024-04-15T20:34:11.710Z,10.10
2024-04-15T20:36:47.294Z,10.08
2024-04-15T20:39:22.843Z,10.05
2024-04-15T20:41:55.676Z,10.04
2024-04-15T20:44:31.119Z,10.04
2024-04-15T20:47:04.178Z,10.03
2024-04-15T20:49:39.629Z,10.03
2024-04-15T20:52:22.998Z,9.99
2024-04-15T20:55:03.434Z,9.97
2024-04-15T20:57:36.872Z,9.92
2024-04-15T21:00:13.975Z,9.86
2024-04-15T21:02:46.783Z,9.79
2024-04-15T21:05:25.447Z,9.73
2024-04-15T21:08:00.866Z,9.66
2024-04-15T21:10:36.359Z,9.57
2024-04-15T21:13:09.226Z,9.50
2024-04-15T21:15:44.885Z,9.44
2024-04-15T21:18:17.732Z,9.40
2024-04-15T21:20:53.205Z,9.36
2024-04-15T21:23:28.548Z,9.29
2024-04-15T21:26:06.239Z,9.20
2024-04-15T21:28:40.390Z,9.16
2024-04-15T21:31:15.731Z,9.12
2024-04-15T21:33:48.414Z,9.08
2024-04-15T21:36:23.716Z,9.02
2024-04-15T21:38:58.795Z,8.95
2024-04-15T21:41:33.806Z,8.90
2024-04-15T21:44:06.345Z,8.86
2024-04-15T21:46:44.302Z,8.85
2024-04-15T21:49:19.902Z,8.83
2024-04-15T21:51:54.902Z,8.80
2024-04-15T21:54:30.564Z,8.77
2024-04-15T21:57:05.518Z,8.72
2024-04-15T21:59:37.877Z,8.68
2024-04-15T22:02:12.814Z,8.65
2024-04-15T22:04:58.418Z,8.62
2024-04-15T22:07:36.183Z,8.58
2024-04-15T22:10:13.428Z,8.55
2024-04-15T22:12:49.306Z,8.51
2024-04-15T22:15:21.710Z,8.51
2024-04-15T22:17:56.790Z,8.49
2024-04-15T22:20:29.312Z,8.49
2024-04-15T22:23:04.323Z,8.48
2024-04-15T22:25:39.345Z,8.47
2024-04-15T22:28:14.499Z,8.47
2024-04-15T22:30:46.916Z,8.48
2024-04-15T22:33:22.070Z,8.48
2024-04-15T22:35:54.586Z,8.45
2024-04-15T22:38:32.088Z,8.43
2024-04-15T22:41:08.635Z,8.40
2024-04-15T22:43:43.675Z,8.37
2024-04-15T22:46:16.042Z,8.35
2024-04-15T22:48:51.102Z,8.34
2024-04-15T22:51:23.505Z,8.33
2024-04-15T22:53:58.450Z,8.31
2024-04-15T22:56:33.435Z,8.28
2024-04-15T22:59:08.458Z,8.25
2024-04-15T23:01:40.982Z,8.21
2024-04-15T23:04:16.084Z,8.18
2024-04-15T23:06:48.479Z,8.18
2024-04-15T23:09:23.821Z,8.17
2024-04-15T23:11:58.799Z,8.17
2024-04-15T23:14:34.175Z,8.19
2024-04-15T23:17:06.614Z,8.20
2024-04-15T23:19:41.617Z,8.20
2024-04-15T23:22:13.976Z,8.18
2024-04-15T23:24:49.457Z,8.18
2024-04-15T23:27:24.445Z,8.16
2024-04-15T23:29:59.508Z,8.17
2024-04-15T23:32:32.122Z,8.16
2024-04-15T23:35:07.485Z,8.17
2024-04-15T23:37:39.916Z,8.19
2024-04-15T23:40:14.978Z,8.23
2024-04-15T23:42:50.005Z,8.27
2024-04-15T23:45:51.646Z,8.31
2024-04-15T23:48:42.922Z,8.30
2024-04-15T23:51:37.146Z,8.32
2024-04-15T23:54:28.196Z,8.35
2024-04-15T23:57:22.153Z,8.35
2024-04-15T23:59:57.239Z,8.36
